Time;durP1;ratioP1;P1;durP2;ratioP2;P2;SDS_P1;SDS_P2;PMS_P1;PMS_P2;Temp;Humidity;BMP_temperature;BMP_pressure;BME280_temperature;BME280_humidity;BME280_pressure;Samples;Min_cycle;Max_cycle;Signal;HPM_P1;HPM_P2
2021/01/24 00:01:58;;;;;;;0.52;0.52;;;3.40;99.90;;;;;;5035466;28;20187;-76
2021/01/24 00:04:24;;;;;;;0.20;0.20;;;3.40;99.90;;;;;;5035317;28;20192;-77
2021/01/24 00:06:50;;;;;;;0.20;0.20;;;3.40;99.90;;;;;;5035275;28;20180;-77
2021/01/24 00:09:15;;;;;;;0.20;0.20;;;3.40;99.90;;;;;;5035284;28;20587;-78
2021/01/24 00:11:41;;;;;;;0.30;0.30;;;3.40;99.90;;;;;;5035304;28;20521;-77
2021/01/24 00:14:07;;;;;;;0.20;0.20;;;3.40;99.90;;;;;;5035131;28;20168;-77
2021/01/24 00:16:32;;;;;;;0.22;0.22;;;3.40;99.90;;;;;;5035113;28;20195;-77
2021/01/24 00:18:58;;;;;;;0.20;0.20;;;3.40;99.90;;;;;;5027105;28;20164;-77
2021/01/24 00:21:23;;;;;;;0.20;0.20;;;3.40;99.90;;;;;;5035191;28;20164;-78
2021/01/24 00:23:49;;;;;;;0.30;0.30;;;3.50;99.90;;;;;;5034904;28;20750;-77
2021/01/24 00:26:14;;;;;;;0.20;0.20;;;3.50;99.90;;;;;;5034931;28;20187;-78
2021/01/24 00:28:40;;;;;;;0.50;0.50;;;3.60;99.90;;;;;;5035019;28;20179;-77
2021/01/24 00:31:06;;;;;;;0.20;0.20;;;3.60;99.90;;;;;;5035043;28;20160;-77
2021/01/24 00:33:31;;;;;;;0.20;0.20;;;3.60;99.90;;;;;;5034878;28;20573;-77
2021/01/24 00:35:57;;;;;;;0.20;0.20;;;3.60;99.90;;;;;;5026649;28;20232;-77
2021/01/24 00:38:22;;;;;;;0.20;0.20;;;3.50;99.90;;;;;;5034776;28;20164;-77
2021/01/24 00:40:48;;;;;;;0.20;0.20;;;3.60;99.90;;;;;;5034755;28;20183;-77
2021/01/24 00:43:13;;;;;;;1.75;0.60;;;3.60;99.90;;;;;;5034661;28;20191;-77
2021/01/24 00:45:39;;;;;;;0.20;0.20;;;3.70;99.90;;;;;;5034549;28;20223;-77
2021/01/24 00:48:05;;;;;;;0.20;0.20;;;3.80;99.90;;;;;;5034690;28;20255;-77
2021/01/24 00:50:30;;;;;;;0.60;0.60;;;3.70;99.90;;;;;;5034663;28;20183;-77
2021/01/24 00:52:56;;;;;;;0.20;0.20;;;3.70;99.90;;;;;;5034583;28;20168;-77
2021/01/24 00:55:22;;;;;;;0.47;0.47;;;3.80;99.90;;;;;;5034386;28;20187;-78
2021/01/24 00:57:47;;;;;;;0.20;0.20;;;3.90;99.90;;;;;;5034590;28;20160;-77
2021/01/24 01:00:13;;;;;;;0.20;0.20;;;4.00;99.90;;;;;;5034422;28;20534;-77
2021/01/24 01:02:39;;;;;;;0.55;0.55;;;4.10;99.90;;;;;;5034386;28;20256;-78
2021/01/24 01:05:05;;;;;;;0.38;0.38;;;4.10;99.90;;;;;;5033452;28;20183;-77
2021/01/24 01:07:31;;;;;;;0.20;0.20;;;4.00;99.90;;;;;;5034199;28;20207;-77
2021/01/24 01:09:57;;;;;;;0.30;0.30;;;4.10;99.90;;;;;;5016483;28;20203;-77
2021/01/24 01:12:22;;;;;;;0.40;0.40;;;4.10;99.90;;;;;;5016365;28;20286;-77
2021/01/24 01:14:48;;;;;;;0.25;0.25;;;3.90;99.90;;;;;;5016186;28;20172;-77
2021/01/24 01:17:14;;;;;;;1.17;1.08;;;3.90;99.90;;;;;;5016445;28;20683;-77
2021/01/24 01:19:40;;;;;;;0.40;0.40;;;3.70;99.90;;;;;;5034078;28;20491;-78
2021/01/24 01:22:05;;;;;;;0.38;0.38;;;3.70;99.90;;;;;;5016190;28;20221;-77
2021/01/24 01:24:31;;;;;;;0.50;0.35;;;3.70;99.90;;;;;;5016053;28;20623;-77
2021/01/24 01:26:56;;;;;;;0.20;0.20;;;3.70;99.90;;;;;;5033974;28;20566;-77
2021/01/24 01:29:22;;;;;;;0.20;0.20;;;3.60;99.90;;;;;;5033889;28;20172;-78
2021/01/24 01:31:48;;;;;;;0.40;0.40;;;3.50;99.90;;;;;;5033842;28;20179;-77
2021/01/24 01:34:13;;;;;;;0.30;0.30;;;3.40;99.90;;;;;;5016121;28;20184;-78
2021/01/24 01:36:39;;;;;;;0.40;0.40;;;3.40;99.90;;;;;;5015967;28;20241;-77
2021/01/24 01:39:04;;;;;;;0.20;0.20;;;3.50;99.90;;;;;;5033756;28;20736;-77
2021/01/24 01:41:31;;;;;;;0.20;0.20;;;3.50;99.90;;;;;;5033755;28;20239;-76
2021/01/24 01:43:57;;;;;;;0.30;0.30;;;3.50;99.90;;;;;;5033441;28;20732;-77
2021/01/24 01:46:26;;;;;;;0.20;0.20;;;3.50;99.90;;;;;;5033373;28;20273;-77
2021/01/24 01:48:51;;;;;;;0.30;0.30;;;3.40;99.90;;;;;;5033557;28;20644;-77
2021/01/24 01:51:17;;;;;;;0.20;0.20;;;3.20;99.90;;;;;;5033513;28;20148;-77
2021/01/24 01:53:44;;;;;;;0.68;0.68;;;3.20;99.90;;;;;;5033457;28;20643;-77
2021/01/24 01:56:11;;;;;;;0.50;0.50;;;3.20;99.90;;;;;;5033308;28;20179;-77
2021/01/24 01:58:36;;;;;;;0.30;0.30;;;3.20;99.90;;;;;;5033342;28;20164;-77
2021/01/24 02:01:06;;;;;;;0.28;0.28;;;3.10;99.90;;;;;;5015571;28;20583;-77
2021/01/24 02:03:54;;;;;;;0.77;0.70;;;3.30;99.90;;;;;;5033117;28;20203;-78
2021/01/24 02:06:30;;;;;;;0.30;0.30;;;3.40;99.90;;;;;;5033149;28;20237;-77
2021/01/24 02:09:09;;;;;;;0.30;0.30;;;3.50;99.90;;;;;;5033231;28;20167;-77
2021/01/24 02:12:03;;;;;;;0.45;0.45;;;3.60;99.90;;;;;;5033021;28;20156;-77
2021/01/24 02:14:31;;;;;;;0.30;0.30;;;3.80;99.90;;;;;;5033255;28;20179;-77
2021/01/24 02:17:03;;;;;;;0.47;0.47;;;3.70;99.90;;;;;;5033124;28;20218;-78
2021/01/24 02:20:00;;;;;;;0.50;0.50;;;3.70;99.90;;;;;;5033023;28;20242;-78
2021/01/24 02:22:30;;;;;;;0.40;0.40;;;3.60;99.90;;;;;;5033198;28;20222;-77
2021/01/24 02:25:08;;;;;;;0.22;0.22;;;3.50;99.90;;;;;;5032857;28;20286;-77
2021/01/24 02:27:40;;;;;;;0.25;0.25;;;3.50;99.90;;;;;;5033149;28;20235;-77
2021/01/24 02:30:22;;;;;;;0.45;0.45;;;3.50;99.90;;;;;;5015254;28;20506;-77
2021/01/24 02:32:53;;;;;;;0.40;0.40;;;3.50;99.90;;;;;;5032959;28;20207;-77
2021/01/24 02:35:20;;;;;;;0.30;0.30;;;3.60;99.90;;;;;;5032872;28;20681;-77
2021/01/24 02:37:47;;;;;;;0.40;0.40;;;3.40;99.90;;;;;;5015229;28;20163;-77
2021/01/24 02:40:13;;;;;;;1.47;0.70;;;3.40;99.90;;;;;;5015218;28;20511;-78
2021/01/24 02:42:40;;;;;;;1.38;0.65;;;3.40;99.90;;;;;;5015143;28;20255;-77
2021/01/24 02:45:06;;;;;;;1.17;0.52;;;3.40;99.90;;;;;;5032597;28;20223;-77
2021/01/24 02:47:32;;;;;;;0.45;0.45;;;3.30;99.90;;;;;;5032927;28;20210;-77
2021/01/24 02:50:02;;;;;;;0.30;0.30;;;3.30;99.90;;;;;;5015218;28;20168;-77
2021/01/24 02:52:28;;;;;;;0.88;0.88;;;3.20;99.90;;;;;;5032838;28;20270;-77
2021/01/24 02:54:54;;;;;;;0.20;0.20;;;3.20;99.90;;;;;;5032716;28;20715;-77
2021/01/24 02:57:20;;;;;;;4.75;0.60;;;3.40;99.90;;;;;;5032761;28;20183;-78
2021/01/24 02:59:46;;;;;;;0.30;0.30;;;3.40;99.90;;;;;;5032680;28;20222;-77
2021/01/24 03:02:12;;;;;;;0.50;0.50;;;3.40;99.90;;;;;;5015003;28;20176;-77
2021/01/24 03:04:38;;;;;;;0.40;0.40;;;3.40;99.90;;;;;;5032617;28;20281;-77
2021/01/24 03:07:04;;;;;;;0.57;0.57;;;3.50;99.90;;;;;;5032665;28;20164;-77
2021/01/24 03:09:30;;;;;;;0.60;0.60;;;3.50;99.90;;;;;;5032463;28;20690;-77
2021/01/24 03:11:58;;;;;;;0.40;0.40;;;3.50;99.90;;;;;;5032451;28;20171;-77
2021/01/24 03:14:28;;;;;;;1.05;1.05;;;3.40;99.90;;;;;;5032511;28;20580;-77
2021/01/24 03:17:00;;;;;;;0.50;0.50;;;3.50;99.90;;;;;;5032474;28;20184;-77
2021/01/24 03:19:28;;;;;;;0.82;0.82;;;3.50;99.90;;;;;;5014788;28;20168;-77
2021/01/24 03:21:55;;;;;;;0.47;0.47;;;3.50;99.90;;;;;;5032398;28;20608;-77
2021/01/24 03:24:22;;;;;;;0.50;0.50;;;3.40;99.90;;;;;;5032408;28;20281;-77
2021/01/24 03:26:48;;;;;;;0.60;0.60;;;3.50;99.90;;;;;;5032777;28;20184;-78
2021/01/24 03:29:14;;;;;;;5.93;1.55;;;3.60;99.90;;;;;;5036231;28;20511;-77
2021/01/24 03:31:44;;;;;;;0.90;0.90;;;3.60;99.90;;;;;;5036172;28;20619;-77
2021/01/24 03:34:28;;;;;;;1.02;1.02;;;3.50;99.90;;;;;;5018656;28;20490;-77
2021/01/24 03:36:56;;;;;;;0.38;0.38;;;3.50;99.90;;;;;;5035899;28;20191;-78
2021/01/24 03:39:22;;;;;;;1.85;1.48;;;3.60;99.90;;;;;;5036083;28;20176;-77
2021/01/24 03:41:48;;;;;;;0.95;0.95;;;3.50;99.90;;;;;;5018154;28;20251;-77
2021/01/24 03:44:13;;;;;;;7.43;1.55;;;3.50;99.90;;;;;;5035606;28;20214;-77
2021/01/24 03:46:39;;;;;;;0.20;0.20;;;3.50;99.90;;;;;;5035657;28;20199;-77
2021/01/24 03:49:06;;;;;;;0.55;0.55;;;3.60;99.90;;;;;;5017939;28;20682;-77
2021/01/24 03:51:32;;;;;;;0.28;0.28;;;3.70;99.90;;;;;;5035805;28;20158;-78
2021/01/24 03:53:57;;;;;;;1.70;1.33;;;3.70;99.90;;;;;;5035637;28;20593;-77
2021/01/24 03:56:23;;;;;;;0.50;0.50;;;3.60;99.90;;;;;;5035495;28;20184;-77
2021/01/24 03:58:49;;;;;;;0.50;0.50;;;3.70;99.90;;;;;;5035469;28;20252;-77
2021/01/24 04:01:15;;;;;;;0.20;0.20;;;3.70;99.90;;;;;;5035556;28;20520;-77
2021/01/24 04:03:41;;;;;;;5.57;1.80;;;3.70;99.90;;;;;;5017655;28;20612;-77
2021/01/24 04:06:06;;;;;;;0.50;0.50;;;3.70;99.90;;;;;;5035337;28;20662;-77
2021/01/24 04:08:32;;;;;;;0.47;0.47;;;3.70;99.90;;;;;;5035248;28;20272;-77
2021/01/24 04:10:58;;;;;;;0.38;0.38;;;3.60;99.90;;;;;;5035263;28;20179;-77
2021/01/24 04:13:24;;;;;;;0.40;0.40;;;3.60;99.90;;;;;;5035336;28;20199;-77
2021/01/24 04:15:50;;;;;;;0.55;0.55;;;3.50;99.90;;;;;;5035434;28;20274;-77
2021/01/24 04:18:15;;;;;;;1.27;1.17;;;3.40;99.90;;;;;;5035202;28;20636;-77
2021/01/24 04:20:41;;;;;;;1.40;1.23;;;3.30;99.90;;;;;;5035120;28;20641;-77
2021/01/24 04:23:06;;;;;;;0.25;0.25;;;3.30;99.90;;;;;;5035037;28;20270;-77
2021/01/24 04:25:32;;;;;;;0.43;0.43;;;3.20;99.90;;;;;;5034915;28;20218;-77
2021/01/24 04:27:58;;;;;;;1.98;1.80;;;3.30;99.90;;;;;;5017398;28;20203;-77
2021/01/24 04:30:24;;;;;;;0.37;0.37;;;3.30;99.90;;;;;;5035068;28;20217;-77
2021/01/24 04:32:50;;;;;;;1.70;0.87;;;3.30;99.90;;;;;;5034939;28;20567;-77
2021/01/24 04:35:15;;;;;;;0.40;0.40;;;3.30;99.90;;;;;;5017081;28;20218;-77
2021/01/24 04:37:41;;;;;;;0.50;0.50;;;3.30;99.90;;;;;;5017135;28;20219;-77
2021/01/24 04:40:07;;;;;;;0.73;0.73;;;3.40;99.90;;;;;;5033738;28;20164;-77
2021/01/24 04:42:33;;;;;;;0.30;0.25;;;3.40;99.90;;;;;;5034810;28;20296;-77
2021/01/24 04:44:59;;;;;;;0.40;0.40;;;3.30;99.90;;;;;;5034556;28;20242;-77
2021/01/24 04:47:26;;;;;;;0.22;0.22;;;3.30;99.90;;;;;;5016888;28;20635;-77
2021/01/24 04:49:51;;;;;;;8.98;1.45;;;3.10;99.90;;;;;;5034637;28;20164;-77
2021/01/24 04:52:17;;;;;;;0.22;0.22;;;3.10;99.90;;;;;;5034579;28;20670;-77
2021/01/24 04:54:44;;;;;;;0.60;0.60;;;3.20;99.90;;;;;;5033252;28;20176;-77
2021/01/24 04:57:10;;;;;;;0.30;0.30;;;3.20;99.90;;;;;;5016711;28;20207;-77
2021/01/24 04:59:36;;;;;;;0.30;0.30;;;3.20;99.90;;;;;;5034356;28;20210;-77
2021/01/24 05:02:02;;;;;;;0.60;0.60;;;3.50;99.90;;;;;;5034393;28;20168;-77
2021/01/24 05:04:28;;;;;;;0.85;0.85;;;3.70;99.90;;;;;;5034291;28;20255;-77
2021/01/24 05:06:54;;;;;;;1.10;1.05;;;3.60;99.90;;;;;;5034258;28;20332;-77
2021/01/24 05:09:22;;;;;;;0.30;0.30;;;3.70;99.90;;;;;;5016464;28;20179;-77
2021/01/24 05:11:51;;;;;;;0.40;0.40;;;3.60;99.90;;;;;;5034122;28;20198;-76
2021/01/24 05:14:24;;;;;;;0.38;0.38;;;3.70;99.90;;;;;;5034237;28;20179;-77
2021/01/24 05:16:54;;;;;;;0.20;0.20;;;3.70;99.90;;;;;;5034042;28;20183;-77
2021/01/24 05:19:21;;;;;;;0.63;0.63;;;3.60;99.90;;;;;;5016292;28;20168;-76
2021/01/24 05:21:47;;;;;;;1.10;1.10;;;3.50;99.90;;;;;;5033970;28;20148;-77
2021/01/24 05:24:17;;;;;;;0.60;0.60;;;3.60;99.90;;;;;;5033975;28;20249;-76
2021/01/24 05:26:44;;;;;;;0.38;0.38;;;3.70;99.90;;;;;;5033905;28;20176;-77
2021/01/24 05:29:24;;;;;;;0.45;0.45;;;3.90;99.90;;;;;;5033798;28;20172;-77
2021/01/24 05:31:51;;;;;;;1.60;1.53;;;4.10;99.90;;;;;;5033677;28;20160;-77
2021/01/24 05:34:21;;;;;;;13.93;0.65;;;4.10;99.90;;;;;;5033643;28;20218;-77
2021/01/24 05:36:47;;;;;;;1.38;1.13;;;4.10;99.90;;;;;;5033511;28;20186;-77
2021/01/24 05:39:14;;;;;;;0.82;0.82;;;4.10;99.90;;;;;;5033713;28;20258;-77
2021/01/24 05:41:41;;;;;;;0.20;0.20;;;4.20;99.90;;;;;;5015998;28;20172;-77
2021/01/24 05:44:13;;;;;;;0.52;0.52;;;4.10;99.90;;;;;;5015790;28;20216;-77
2021/01/24 05:46:40;;;;;;;1.65;1.35;;;4.00;99.90;;;;;;5033443;28;20196;-77
2021/01/24 05:49:10;;;;;;;0.57;0.57;;;4.00;99.90;;;;;;5015466;28;20199;-77
2021/01/24 05:51:36;;;;;;;0.30;0.30;;;3.80;99.90;;;;;;5033056;28;20510;-77
2021/01/24 05:54:02;;;;;;;0.28;0.28;;;3.90;99.90;;;;;;5015734;28;20262;-77
2021/01/24 05:56:29;;;;;;;0.30;0.30;;;3.90;99.90;;;;;;5033262;28;20491;-77
2021/01/24 05:58:55;;;;;;;0.50;0.50;;;3.90;99.90;;;;;;5033262;28;20172;-77
2021/01/24 06:01:22;;;;;;;0.30;0.30;;;3.70;99.90;;;;;;5033440;28;20183;-77
2021/01/24 06:03:48;;;;;;;0.45;0.45;;;3.70;99.90;;;;;;5015504;28;20211;-77
2021/01/24 06:06:14;;;;;;;0.30;0.30;;;3.50;99.90;;;;;;5033072;28;20615;-76
2021/01/24 06:08:40;;;;;;;0.88;0.88;;;3.50;99.90;;;;;;5033216;28;20259;-77
2021/01/24 06:11:07;;;;;;;1.23;1.23;;;3.60;99.90;;;;;;5033281;28;20210;-77
2021/01/24 06:13:34;;;;;;;4.68;1.00;;;3.60;99.90;;;;;;5015463;28;20164;-77
2021/01/24 06:16:20;;;;;;;0.40;0.40;;;3.60;99.90;;;;;;5033083;28;20191;-77
2021/01/24 06:18:57;;;;;;;3.25;1.05;;;3.50;99.90;;;;;;5033068;28;20174;-77
2021/01/24 06:21:45;;;;;;;0.30;0.30;;;3.60;99.90;;;;;;5033141;28;20711;-77
2021/01/24 06:24:14;;;;;;;5.05;1.65;;;3.50;99.90;;;;;;5015241;28;20199;-77
2021/01/24 06:26:42;;;;;;;0.35;0.35;;;3.40;99.90;;;;;;5032860;28;20183;-76
2021/01/24 06:29:10;;;;;;;0.50;0.50;;;3.40;99.90;;;;;;5033131;28;20156;-76
2021/01/24 06:31:45;;;;;;;0.40;0.40;;;3.50;99.90;;;;;;5032899;28;20160;-76
2021/01/24 06:34:10;;;;;;;0.70;0.70;;;3.40;99.90;;;;;;5032880;28;20657;-77
2021/01/24 06:36:37;;;;;;;0.43;0.43;;;3.50;99.90;;;;;;5014880;28;20278;-77
2021/01/24 06:39:04;;;;;;;2.78;2.10;;;3.70;99.90;;;;;;5015223;28;20544;-78
2021/01/24 06:41:46;;;;;;;1.20;1.20;;;3.50;99.90;;;;;;5015252;28;20625;-77
2021/01/24 06:44:40;;;;;;;1.97;1.73;;;3.50;99.90;;;;;;5032758;28;20593;-77
2021/01/24 06:47:35;;;;;;;0.68;0.57;;;3.60;99.90;;;;;;5032842;28;20283;-76
2021/01/24 06:50:01;;;;;;;1.20;0.63;;;3.40;99.90;;;;;;5032742;28;20166;-77
2021/01/24 06:52:26;;;;;;;3.50;1.75;;;3.20;99.90;;;;;;5032863;28;20168;-77
2021/01/24 06:54:52;;;;;;;3.45;2.55;;;3.20;99.90;;;;;;5032742;28;20544;-76
2021/01/24 06:57:18;;;;;;;0.50;0.50;;;3.50;99.90;;;;;;5032679;28;20570;-77
2021/01/24 06:59:44;;;;;;;2.00;1.20;;;3.60;99.90;;;;;;5032565;28;20623;-77
2021/01/24 07:02:31;;;;;;;1.45;0.55;;;3.40;99.90;;;;;;5033732;28;20207;-77
2021/01/24 07:05:12;;;;;;;0.40;0.40;;;3.30;99.90;;;;;;5018583;28;20289;-77
2021/01/24 07:07:43;;;;;;;0.70;0.70;;;3.40;99.90;;;;;;5036604;28;20626;-75
2021/01/24 07:10:30;;;;;;;1.60;1.50;;;3.20;99.90;;;;;;5036409;28;20168;-76
2021/01/24 07:12:55;;;;;;;0.30;0.30;;;3.10;99.90;;;;;;5036221;28;20183;-77
2021/01/24 07:15:22;;;;;;;0.20;0.20;;;2.90;99.90;;;;;;5036389;28;20643;-77
2021/01/24 07:17:58;;;;;;;0.83;0.63;;;2.90;99.90;;;;;;5036361;28;20266;-76
2021/01/24 07:20:24;;;;;;;0.68;0.68;;;3.10;99.90;;;;;;5036379;28;20564;-77
2021/01/24 07:22:51;;;;;;;1.90;1.13;;;3.10;99.90;;;;;;5036124;28;20172;-76
2021/01/24 07:25:18;;;;;;;0.30;0.30;;;3.00;99.90;;;;;;5035951;28;20671;-77
2021/01/24 07:27:43;;;;;;;0.60;0.60;;;3.30;99.90;;;;;;5034632;28;20597;-75
2021/01/24 07:30:10;;;;;;;0.40;0.40;;;3.30;99.90;;;;;;5018094;28;20176;-75
2021/01/24 07:32:39;;;;;;;0.30;0.30;;;3.10;99.90;;;;;;5035947;28;20171;-77
2021/01/24 07:35:05;;;;;;;0.35;0.35;;;3.20;99.90;;;;;;5035744;28;20195;-77
2021/01/24 07:37:31;;;;;;;0.30;0.30;;;3.20;99.90;;;;;;5018087;28;20163;-76
2021/01/24 07:39:58;;;;;;;1.20;1.10;;;3.20;99.90;;;;;;5018017;28;20616;-74
2021/01/24 07:42:24;;;;;;;13.60;2.83;;;3.20;99.90;;;;;;5035700;28;20172;-77
2021/01/24 07:44:49;;;;;;;1.03;1.03;;;3.20;99.90;;;;;;5017394;28;20280;-76
2021/01/24 07:47:15;;;;;;;0.50;0.50;;;3.20;99.90;;;;;;5035600;28;20175;-76
2021/01/24 07:49:41;;;;;;;1.10;0.97;;;3.40;99.90;;;;;;5035774;28;20175;-76
2021/01/24 07:52:07;;;;;;;0.90;0.90;;;3.30;99.90;;;;;;5035655;28;20171;-77
2021/01/24 07:54:37;;;;;;;0.30;0.30;;;3.50;99.90;;;;;;5035543;28;20478;-76
2021/01/24 07:57:06;;;;;;;0.50;0.50;;;3.50;99.90;;;;;;5035556;28;20266;-77
2021/01/24 07:59:33;;;;;;;0.87;0.87;;;3.40;99.90;;;;;;5017830;28;20167;-78
2021/01/24 08:01:59;;;;;;;1.95;1.48;;;3.50;99.90;;;;;;5035511;28;20164;-77
2021/01/24 08:04:26;;;;;;;0.55;0.55;;;3.40;99.90;;;;;;5035383;28;20729;-78
2021/01/24 08:06:52;;;;;;;0.85;0.85;;;3.40;99.90;;;;;;5035775;28;20184;-78
2021/01/24 08:09:18;;;;;;;1.77;1.67;;;3.30;99.90;;;;;;5017109;28;20433;-77
2021/01/24 08:11:45;;;;;;;0.32;0.32;;;3.40;99.90;;;;;;5035364;28;20160;-77
2021/01/24 08:14:10;;;;;;;0.30;0.30;;;3.40;99.90;;;;;;5035161;28;20171;-77
2021/01/24 08:16:40;;;;;;;1.23;1.23;;;3.40;99.90;;;;;;5035036;28;20241;-77
2021/01/24 08:19:09;;;;;;;1.35;1.25;;;3.30;99.90;;;;;;5034926;28;20167;-77
2021/01/24 08:21:36;;;;;;;0.50;0.50;;;3.40;99.90;;;;;;5035110;28;20152;-77
2021/01/24 08:24:02;;;;;;;2.33;2.17;;;3.30;99.90;;;;;;5035337;28;20753;-84
2021/01/24 08:26:29;;;;;;;0.80;0.80;;;3.50;99.90;;;;;;5017435;28;20211;-77
2021/01/24 08:28:55;;;;;;;0.77;0.77;;;3.60;99.90;;;;;;5035113;28;20191;-77
2021/01/24 08:31:22;;;;;;;1.58;1.58;;;3.70;99.90;;;;;;5034904;28;20521;-77
2021/01/24 08:33:49;;;;;;;1.23;0.85;;;3.90;99.90;;;;;;5034736;28;20168;-77
2021/01/24 08:36:20;;;;;;;1.85;0.77;;;3.80;99.90;;;;;;5034672;28;20192;-77
2021/01/24 08:38:48;;;;;;;0.43;0.43;;;3.80;99.90;;;;;;5016841;28;20183;-77
2021/01/24 08:41:15;;;;;;;1.58;1.45;;;3.90;99.90;;;;;;5034773;28;20159;-77
2021/01/24 08:43:41;;;;;;;1.80;1.70;;;3.90;99.90;;;;;;5034621;28;20651;-77
2021/01/24 08:46:20;;;;;;;0.43;0.43;;;3.80;99.90;;;;;;5034367;28;20238;-78
2021/01/24 08:49:02;;;;;;;3.45;0.73;;;3.80;99.90;;;;;;5016841;28;20174;-77
2021/01/24 08:51:45;;;;;;;2.55;1.40;;;3.70;99.90;;;;;;5034607;28;20522;-78
2021/01/24 08:54:23;;;;;;;0.30;0.30;;;3.60;99.90;;;;;;5034487;28;20578;-77
2021/01/24 08:56:50;;;;;;;6.22;3.00;;;3.80;99.90;;;;;;5034288;28;20179;-77
2021/01/24 08:59:26;;;;;;;2.55;0.85;;;4.00;99.90;;;;;;5034240;28;20710;-77
2021/01/24 09:01:55;;;;;;;1.75;1.30;;;3.90;99.90;;;;;;5034295;28;20566;-77
2021/01/24 09:04:33;;;;;;;0.55;0.55;;;3.90;99.90;;;;;;5016493;28;20203;-77
2021/01/24 09:07:10;;;;;;;1.05;1.05;;;3.90;99.90;;;;;;5034294;28;20164;-78
2021/01/24 09:09:45;;;;;;;0.75;0.75;;;3.90;99.90;;;;;;5034337;28;20654;-77
2021/01/24 09:12:13;;;;;;;0.95;0.95;;;4.00;99.90;;;;;;5016293;28;20167;-77
2021/01/24 09:14:40;;;;;;;0.70;0.70;;;3.90;99.90;;;;;;5016377;28;20521;-77
2021/01/24 09:17:14;;;;;;;0.68;0.68;;;3.90;99.90;;;;;;5033912;28;20179;-78
2021/01/24 09:19:42;;;;;;;3.40;1.45;;;4.00;99.90;;;;;;5033951;28;20686;-77
2021/01/24 09:22:10;;;;;;;0.50;0.50;;;4.00;99.90;;;;;;5033928;28;20164;-77
2021/01/24 09:24:36;;;;;;;1.10;1.05;;;4.20;99.90;;;;;;5033026;28;20196;-77
2021/01/24 09:27:03;;;;;;;1.45;1.30;;;4.10;99.90;;;;;;5033712;28;20179;-77
2021/01/24 09:29:29;;;;;;;0.80;0.80;;;4.20;99.90;;;;;;5015999;28;20211;-77
2021/01/24 09:31:54;;;;;;;2.92;1.17;;;4.20;99.90;;;;;;5033650;28;20222;-77
2021/01/24 09:34:20;;;;;;;1.40;1.38;;;4.40;99.90;;;;;;5033599;28;20254;-78
2021/01/24 09:36:46;;;;;;;0.85;0.85;;;4.40;99.90;;;;;;5033472;28;20659;-77
2021/01/24 09:39:11;;;;;;;0.85;0.85;;;4.00;99.90;;;;;;5033593;28;20164;-76
2021/01/24 09:41:37;;;;;;;0.50;0.50;;;3.90;99.90;;;;;;5033457;28;20164;-77
2021/01/24 09:44:03;;;;;;;2.30;0.93;;;3.90;99.90;;;;;;5033336;28;20647;-76
2021/01/24 09:46:30;;;;;;;1.38;1.05;;;4.20;99.90;;;;;;5033111;28;20216;-76
2021/01/24 09:48:55;;;;;;;1.88;1.77;;;4.20;99.90;;;;;;5031907;28;20179;-77
2021/01/24 09:51:21;;;;;;;0.93;0.93;;;4.40;99.90;;;;;;5033646;28;20148;-76
2021/01/24 09:53:51;;;;;;;13.20;1.15;;;4.30;99.90;;;;;;5033141;28;20694;-76
2021/01/24 09:56:17;;;;;;;1.00;0.77;;;4.50;99.90;;;;;;5032962;28;20198;-77
2021/01/24 09:58:43;;;;;;;0.50;0.50;;;4.70;99.90;;;;;;5033551;28;20211;-76
2021/01/24 10:01:09;;;;;;;0.57;0.57;;;4.70;99.90;;;;;;5033241;28;20238;-77
2021/01/24 10:03:34;;;;;;;5.47;1.58;;;4.80;99.90;;;;;;5033222;28;20558;-76
2021/01/24 10:06:00;;;;;;;1.17;1.15;;;5.00;99.90;;;;;;5033043;28;20270;-76
2021/01/24 10:08:25;;;;;;;2.17;0.95;;;5.10;99.90;;;;;;5043834;28;20232;-77
2021/01/24 10:10:51;;;;;;;1.10;1.10;;;4.50;99.90;;;;;;5029712;28;20200;-78
2021/01/24 10:13:16;;;;;;;3.22;1.73;;;4.60;99.90;;;;;;5013526;28;20172;-75
2021/01/24 10:15:42;;;;;;;2.03;1.30;;;4.30;99.90;;;;;;5030068;28;20249;-77
2021/01/24 10:18:08;;;;;;;0.68;0.68;;;4.30;99.90;;;;;;5032841;28;20171;-77
2021/01/24 10:20:34;;;;;;;2.92;1.17;;;4.30;99.90;;;;;;5032975;28;20187;-76
2021/01/24 10:23:00;;;;;;;1.10;1.10;;;4.30;99.90;;;;;;5032895;28;20218;-76
2021/01/24 10:25:26;;;;;;;6.13;1.50;;;4.20;99.90;;;;;;5032848;28;20367;-76
2021/01/24 10:27:51;;;;;;;0.32;0.32;;;4.50;99.90;;;;;;5032818;28;20161;-77
2021/01/24 10:30:18;;;;;;;0.98;0.98;;;4.50;99.90;;;;;;5015149;28;20275;-76
2021/01/24 10:32:43;;;;;;;0.68;0.68;;;4.70;99.90;;;;;;5031397;28;20163;-77
2021/01/24 10:35:09;;;;;;;0.52;0.52;;;4.70;99.90;;;;;;5014966;28;20191;-77
2021/01/24 10:37:35;;;;;;;2.15;1.38;;;4.70;99.90;;;;;;5036325;28;20167;-76
2021/01/24 10:40:02;;;;;;;1.88;1.65;;;4.80;99.90;;;;;;5016408;28;20168;-78
2021/01/24 10:42:28;;;;;;;1.15;1.05;;;5.10;99.90;;;;;;5035793;28;20168;-78
2021/01/24 10:44:53;;;;;;;1.08;1.08;;;5.20;99.90;;;;;;5008775;28;20304;-76
2021/01/24 10:47:19;;;;;;;0.43;0.43;;;5.20;99.90;;;;;;5022176;28;20584;-77
2021/01/24 10:49:44;;;;;;;0.35;0.35;;;5.20;99.90;;;;;;5018014;28;20516;-77
2021/01/24 10:52:10;;;;;;;11.73;3.33;;;5.60;99.90;;;;;;5035175;28;20187;-75
2021/01/24 10:54:36;;;;;;;0.70;0.70;;;5.50;99.90;;;;;;5033747;28;20189;-77
2021/01/24 10:57:02;;;;;;;0.95;0.95;;;5.80;99.90;;;;;;5032755;28;20175;-77
2021/01/24 10:59:27;;;;;;;0.93;0.93;;;6.00;99.90;;;;;;4999014;28;20172;-76
2021/01/24 11:01:53;;;;;;;1.15;1.05;;;5.80;99.90;;;;;;5035672;28;20519;-77
2021/01/24 11:04:20;;;;;;;1.13;1.13;;;5.80;99.90;;;;;;5035264;28;20252;-78
2021/01/24 11:06:46;;;;;;;1.58;1.45;;;5.60;99.90;;;;;;5036208;28;20841;-79
2021/01/24 11:09:11;;;;;;;1.10;1.08;;;5.80;99.90;;;;;;5036085;28;20251;-78
2021/01/24 11:11:37;;;;;;;0.35;0.35;;;5.90;99.90;;;;;;5036193;28;20243;-78
2021/01/24 11:14:02;;;;;;;0.47;0.47;;;6.00;99.90;;;;;;5036087;28;20534;-77
2021/01/24 11:16:28;;;;;;;6.43;1.73;;;5.90;99.90;;;;;;5036099;28;20192;-78
2021/01/24 11:18:54;;;;;;;1.10;1.02;;;6.00;99.90;;;;;;5036314;28;20164;-76
2021/01/24 11:21:19;;;;;;;1.52;1.42;;;5.90;99.90;;;;;;5036147;28;20164;-76
2021/01/24 11:23:45;;;;;;;0.35;0.35;;;5.50;99.90;;;;;;5018188;28;20200;-78
2021/01/24 11:26:10;;;;;;;5.57;0.73;;;5.40;99.90;;;;;;5035869;28;20721;-77
2021/01/24 11:28:36;;;;;;;0.32;0.32;;;5.40;99.90;;;;;;5036055;28;20161;-77
2021/01/24 11:31:01;;;;;;;0.93;0.93;;;5.60;99.90;;;;;;5036164;28;20239;-77
2021/01/24 11:33:27;;;;;;;1.42;1.33;;;5.70;99.90;;;;;;5034828;28;20172;-76
2021/01/24 11:35:53;;;;;;;1.02;1.02;;;5.60;99.90;;;;;;5030503;28;20207;-77
2021/01/24 11:38:18;;;;;;;0.38;0.38;;;5.70;99.90;;;;;;5035424;28;20160;-85
2021/01/24 11:40:44;;;;;;;5.93;1.45;;;5.60;99.90;;;;;;5035320;28;20171;-77
2021/01/24 11:43:10;;;;;;;1.17;1.17;;;5.40;99.90;;;;;;5017692;28;20164;-77
2021/01/24 11:45:35;;;;;;;4.13;1.58;;;5.60;99.90;;;;;;5017714;28;20888;-77
2021/01/24 11:48:02;;;;;;;1.38;1.27;;;5.40;99.90;;;;;;5017241;28;20595;-78
2021/01/24 11:50:27;;;;;;;1.00;0.98;;;5.60;99.90;;;;;;5035597;28;20187;-77
2021/01/24 11:52:53;;;;;;;1.52;1.42;;;5.40;99.90;;;;;;5017807;28;20219;-77
2021/01/24 11:55:18;;;;;;;24.83;2.28;;;5.40;99.90;;;;;;5035585;28;20188;-78
2021/01/24 11:57:44;;;;;;;1.45;0.77;;;5.30;99.90;;;;;;5035777;28;20234;-82
2021/01/24 12:00:10;;;;;;;1.02;0.98;;;5.20;99.90;;;;;;5036299;28;20168;-83
2021/01/24 12:02:36;;;;;;;0.75;0.75;;;5.30;99.90;;;;;;5035869;28;20581;-77
2021/01/24 12:05:01;;;;;;;1.20;1.20;;;5.40;99.90;;;;;;5035009;28;20222;-76
2021/01/24 12:07:27;;;;;;;0.98;0.98;;;5.30;99.90;;;;;;5034798;28;20524;-76
2021/01/24 12:09:53;;;;;;;0.75;0.75;;;5.50;99.90;;;;;;5035052;28;20183;-78
2021/01/24 12:12:18;;;;;;;0.93;0.93;;;5.70;99.90;;;;;;5035104;28;20630;-77
2021/01/24 12:14:44;;;;;;;0.85;0.85;;;5.80;99.90;;;;;;5035563;28;20168;-78
2021/01/24 12:17:10;;;;;;;1.15;1.15;;;5.90;99.90;;;;;;5035655;28;20251;-77
2021/01/24 12:19:36;;;;;;;0.40;0.40;;;5.90;99.90;;;;;;5035055;28;20659;-77
2021/01/24 12:22:01;;;;;;;0.45;0.45;;;5.80;99.90;;;;;;5035054;28;20239;-77
2021/01/24 12:24:27;;;;;;;3.60;2.17;;;5.70;99.90;;;;;;5034996;28;20654;-77
2021/01/24 12:26:52;;;;;;;1.45;1.38;;;5.90;99.90;;;;;;5035293;28;20191;-77
2021/01/24 12:29:18;;;;;;;1.42;1.33;;;6.10;99.90;;;;;;5034426;28;20271;-77
2021/01/24 12:31:44;;;;;;;4.13;2.00;;;6.10;99.90;;;;;;5034762;28;20494;-77
2021/01/24 12:34:10;;;;;;;1.15;1.15;;;6.00;99.90;;;;;;5034914;28;20168;-77
2021/01/24 12:36:36;;;;;;;0.63;0.60;;;6.20;99.90;;;;;;5034690;28;20235;-76
2021/01/24 12:39:02;;;;;;;0.90;0.90;;;6.20;99.90;;;;;;5017010;28;20631;-77
2021/01/24 12:41:27;;;;;;;0.68;0.68;;;5.80;99.90;;;;;;5016873;28;20195;-76
2021/01/24 12:43:53;;;;;;;2.47;1.33;;;5.50;99.90;;;;;;5016773;28;20218;-77
2021/01/24 12:46:19;;;;;;;0.90;0.90;;;5.60;99.90;;;;;;5034234;28;20690;-77
2021/01/24 12:48:44;;;;;;;0.25;0.25;;;5.80;99.90;;;;;;5016798;28;20171;-77
2021/01/24 12:51:10;;;;;;;1.10;1.10;;;5.60;99.90;;;;;;5034601;28;20167;-77
2021/01/24 12:53:35;;;;;;;0.40;0.40;;;5.70;99.90;;;;;;5034755;28;20257;-78
2021/01/24 12:56:01;;;;;;;0.45;0.45;;;5.80;99.90;;;;;;5034236;28;20179;-77
2021/01/24 12:58:27;;;;;;;2.42;1.48;;;6.00;99.90;;;;;;5034297;28;20523;-76
2021/01/24 13:00:52;;;;;;;2.30;1.17;;;5.80;99.90;;;;;;5033326;28;20683;-77